sensor_id;sensor_type;location;lat;lon;timestamp;pressure;altitude;pressure_sealevel;temperature;humidity
34185;BME280;20454;48.100;11.776;2023-01-28T00:01:40;95743.78;;;-0.32;100.00
34185;BME280;20454;48.100;11.776;2023-01-28T00:04:06;95728.97;;;-0.36;100.00
34185;BME280;20454;48.100;11.776;2023-01-28T00:06:31;95735.00;;;-0.34;100.00
34185;BME280;20454;48.100;11.776;2023-01-28T00:08:57;95742.97;;;-0.33;100.00
34185;BME280;20454;48.100;11.776;2023-01-28T00:11:22;95749.00;;;-0.31;100.00
34185;BME280;20454;48.100;11.776;2023-01-28T00:13:52;95743.19;;;-0.34;100.00
34185;BME280;20454;48.100;11.776;2023-01-28T00:16:18;95743.19;;;-0.34;100.00
34185;BME280;20454;48.100;11.776;2023-01-28T00:18:44;95743.44;;;-0.36;100.00
34185;BME280;20454;48.100;11.776;2023-01-28T00:21:12;95745.69;;;-0.33;100.00
34185;BME280;20454;48.100;11.776;2023-01-28T00:23:39;95742.03;;;-0.38;100.00
34185;BME280;20454;48.100;11.776;2023-01-28T00:26:09;95741.78;;;-0.37;100.00
34185;BME280;20454;48.100;11.776;2023-01-28T00:28:35;95749.19;;;-0.37;100.00
34185;BME280;20454;48.100;11.776;2023-01-28T00:31:14;95750.31;;;-0.33;100.00
34185;BME280;20454;48.100;11.776;2023-01-28T00:33:42;95748.66;;;-0.34;100.00
34185;BME280;20454;48.100;11.776;2023-01-28T00:36:08;95748.09;;;-0.36;100.00
34185;BME280;20454;48.100;11.776;2023-01-28T00:38:34;95744.75;;;-0.38;100.00
34185;BME280;20454;48.100;11.776;2023-01-28T00:41:11;95741.69;;;-0.42;100.00
34185;BME280;20454;48.100;11.776;2023-01-28T00:43:37;95738.72;;;-0.40;100.00
34185;BME280;20454;48.100;11.776;2023-01-28T00:46:04;95750.50;;;-0.40;100.00
34185;BME280;20454;48.100;11.776;2023-01-28T00:48:34;95746.34;;;-0.42;100.00
34185;BME280;20454;48.100;11.776;2023-01-28T00:51:00;95747.50;;;-0.38;100.00
34185;BME280;20454;48.100;11.776;2023-01-28T00:53:26;95743.63;;;-0.42;100.00
34185;BME280;20454;48.100;11.776;2023-01-28T00:55:52;95743.88;;;-0.44;100.00
34185;BME280;20454;48.100;11.776;2023-01-28T00:58:19;95749.91;;;-0.42;100.00
34185;BME280;20454;48.100;11.776;2023-01-28T01:00:44;95744.38;;;-0.47;100.00
34185;BME280;20454;48.100;11.776;2023-01-28T01:03:10;95746.03;;;-0.46;100.00
34185;BME280;20454;48.100;11.776;2023-01-28T01:05:36;95742.13;;;-0.50;100.00
34185;BME280;20454;48.100;11.776;2023-01-28T01:08:02;95753.97;;;-0.44;100.00
34185;BME280;20454;48.100;11.776;2023-01-28T01:10:27;95746.84;;;-0.45;100.00
34185;BME280;20454;48.100;11.776;2023-01-28T01:12:53;95747.66;;;-0.45;100.00
34185;BME280;20454;48.100;11.776;2023-01-28T01:15:19;95747.44;;;-0.43;100.00
34185;BME280;20454;48.100;11.776;2023-01-28T01:17:47;95749.91;;;-0.42;100.00
34185;BME280;20454;48.100;11.776;2023-01-28T01:20:18;95748.00;;;-0.41;100.00
34185;BME280;20454;48.100;11.776;2023-01-28T01:22:45;95749.97;;;-0.37;100.00
34185;BME280;20454;48.100;11.776;2023-01-28T01:25:12;95742.78;;;-0.43;100.00
34185;BME280;20454;48.100;11.776;2023-01-28T01:27:38;95752.63;;;-0.42;100.00
34185;BME280;20454;48.100;11.776;2023-01-28T01:30:04;95749.91;;;-0.42;100.00
34185;BME280;20454;48.100;11.776;2023-01-28T01:32:31;95753.81;;;-0.38;100.00
34185;BME280;20454;48.100;11.776;2023-01-28T01:34:57;95748.00;;;-0.41;100.00
34185;BME280;20454;48.100;11.776;2023-01-28T01:37:23;95750.72;;;-0.41;100.00
34185;BME280;20454;48.100;11.776;2023-01-28T01:39:48;95755.34;;;-0.42;100.00
34185;BME280;20454;48.100;11.776;2023-01-28T01:42:14;95749.56;;;-0.45;100.00
34185;BME280;20454;48.100;11.776;2023-01-28T01:47:41;95767.97;;;-0.41;100.00
34185;BME280;20454;48.100;11.776;2023-01-28T01:52:42;95774.47;;;-0.42;100.00
34185;BME280;20454;48.100;11.776;2023-01-28T01:55:11;95774.47;;;-0.42;100.00
34185;BME280;20454;48.100;11.776;2023-01-28T01:57:38;95779.47;;;-0.39;100.00
34185;BME280;20454;48.100;11.776;2023-01-28T02:00:06;95780.56;;;-0.40;100.00
34185;BME280;20454;48.100;11.776;2023-01-28T02:02:34;95776.75;;;-0.39;100.00
34185;BME280;20454;48.100;11.776;2023-01-28T02:05:02;95779.72;;;-0.40;100.00
34185;BME280;20454;48.100;11.776;2023-01-28T02:07:28;95769.88;;;-0.41;100.00
34185;BME280;20454;48.100;11.776;2023-01-28T02:09:53;95761.09;;;-0.43;100.00
34185;BME280;20454;48.100;11.776;2023-01-28T02:12:25;95780.78;;;-0.41;100.00
34185;BME280;20454;48.100;11.776;2023-01-28T02:15:00;95778.06;;;-0.41;100.00
34185;BME280;20454;48.100;11.776;2023-01-28T02:17:27;95772.25;;;-0.45;100.00
34185;BME280;20454;48.100;11.776;2023-01-28T02:19:57;95787.09;;;-0.41;100.00
34185;BME280;20454;48.100;11.776;2023-01-28T02:26:00;95782.09;;;-0.44;100.00
34185;BME280;20454;48.100;11.776;2023-01-28T02:28:49;95778.28;;;-0.43;100.00
34185;BME280;20454;48.100;11.776;2023-01-28T02:31:28;95783.28;;;-0.40;100.00
34185;BME280;20454;48.100;11.776;2023-01-28T02:34:01;95787.34;;;-0.42;100.00
34185;BME280;20454;48.100;11.776;2023-01-28T02:36:52;95771.94;;;-0.48;100.00
34185;BME280;20454;48.100;11.776;2023-01-28T02:39:28;95786.50;;;-0.43;100.00
34185;BME280;20454;48.100;11.776;2023-01-28T02:41:56;95787.34;;;-0.42;100.00
34185;BME280;20454;48.100;11.776;2023-01-28T02:44:26;95781.03;;;-0.43;100.00
34185;BME280;20454;48.100;11.776;2023-01-28T02:46:52;95792.81;;;-0.42;100.00
34185;BME280;20454;48.100;11.776;2023-01-28T02:49:47;95787.00;;;-0.46;100.00
34185;BME280;20454;48.100;11.776;2023-01-28T02:55:24;95796.09;;;-0.40;100.00
34185;BME280;20454;48.100;11.776;2023-01-28T07:30:52;95961.63;;;-0.56;100.00
34185;BME280;20454;48.100;11.776;2023-01-28T07:33:18;95947.91;;;-0.61;100.00
34185;BME280;20454;48.100;11.776;2023-01-28T07:35:44;95964.72;;;-0.52;100.00
34185;BME280;20454;48.100;11.776;2023-01-28T07:38:11;95971.59;;;-0.50;100.00
34185;BME280;20454;48.100;11.776;2023-01-28T07:40:36;95977.06;;;-0.50;100.00
34185;BME280;20454;48.100;11.776;2023-01-28T07:43:02;95976.59;;;-0.47;100.00
34185;BME280;20454;48.100;11.776;2023-01-28T07:45:28;95971.84;;;-0.51;100.00
34185;BME280;20454;48.100;11.776;2023-01-28T07:47:57;95967.44;;;-0.52;100.00
34185;BME280;20454;48.100;11.776;2023-01-28T07:50:23;95978.72;;;-0.49;100.00
34185;BME280;20454;48.100;11.776;2023-01-28T07:52:49;95974.59;;;-0.51;100.00
34185;BME280;20454;48.100;11.776;2023-01-28T07:55:15;95984.78;;;-0.47;100.00
34185;BME280;20454;48.100;11.776;2023-01-28T07:57:56;95977.56;;;-0.53;100.00
34185;BME280;20454;48.100;11.776;2023-01-28T11:01:53;96022.69;;;1.32;89.46
34185;BME280;20454;48.100;11.776;2023-01-28T11:04:33;96022.47;;;1.34;89.61
34185;BME280;20454;48.100;11.776;2023-01-28T11:06:59;96016.47;;;1.37;89.82
34185;BME280;20454;48.100;11.776;2023-01-28T11:09:36;96017.06;;;1.39;89.98
34185;BME280;20454;48.100;11.776;2023-01-28T11:12:16;96017.19;;;1.49;89.67
34185;BME280;20454;48.100;11.776;2023-01-28T11:15:04;95978.53;;;1.29;88.64
34185;BME280;20454;48.100;11.776;2023-01-28T11:17:33;95985.81;;;1.40;88.92
34185;BME280;20454;48.100;11.776;2023-01-28T11:20:08;96018.22;;;1.64;88.32
34185;BME280;20454;48.100;11.776;2023-01-28T11:22:39;96013.31;;;1.66;88.26
34185;BME280;20454;48.100;11.776;2023-01-28T11:27:49;96012.28;;;1.72;87.50
34185;BME280;20454;48.100;11.776;2023-01-28T11:30:36;96019.19;;;1.75;87.99
34185;BME280;20454;48.100;11.776;2023-01-28T11:33:17;96031.88;;;1.81;87.37
34185;BME280;20454;48.100;11.776;2023-01-28T11:35:57;96010.63;;;1.71;88.06
34185;BME280;20454;48.100;11.776;2023-01-28T11:38:28;96014.72;;;1.69;88.03
34185;BME280;20454;48.100;11.776;2023-01-28T11:40:55;96022.09;;;1.68;88.26
34185;BME280;20454;48.100;11.776;2023-01-28T11:43:23;96017.13;;;1.65;88.18
34185;BME280;20454;48.100;11.776;2023-01-28T11:48:44;96026.13;;;1.61;88.99
34185;BME280;20454;48.100;11.776;2023-01-28T11:51:41;96026.63;;;1.58;89.29
34185;BME280;20454;48.100;11.776;2023-01-28T11:57:10;96025.94;;;1.46;88.39
34185;BME280;20454;48.100;11.776;2023-01-28T14:53:27;96099.19;;;1.17;90.90
34185;BME280;20454;48.100;11.776;2023-01-28T17:04:49;96182.84;;;0.64;94.68
34185;BME280;20454;48.100;11.776;2023-01-28T17:07:14;96191.75;;;0.71;94.81
34185;BME280;20454;48.100;11.776;2023-01-28T17:09:40;96191.63;;;0.66;94.42
34185;BME280;20454;48.100;11.776;2023-01-28T17:12:06;96190.56;;;0.67;94.74
34185;BME280;20454;48.100;11.776;2023-01-28T17:14:32;96193.28;;;0.67;94.83
34185;BME280;20454;48.100;11.776;2023-01-28T17:16:57;96198.53;;;0.68;95.14
34185;BME280;20454;48.100;11.776;2023-01-28T17:19:23;96208.63;;;0.68;95.07
34185;BME280;20454;48.100;11.776;2023-01-28T17:21:49;96204.25;;;0.67;95.52
34185;BME280;20454;48.100;11.776;2023-01-28T17:24:14;96205.31;;;0.66;95.71
34185;BME280;20454;48.100;11.776;2023-01-28T17:26:40;96215.78;;;0.69;95.80
34185;BME280;20454;48.100;11.776;2023-01-28T17:29:06;96216.03;;;0.67;95.57
34185;BME280;20454;48.100;11.776;2023-01-28T17:31:33;96211.03;;;0.64;95.81
34185;BME280;20454;48.100;11.776;2023-01-28T17:33:59;96216.63;;;0.69;96.15
34185;BME280;20454;48.100;11.776;2023-01-28T17:36:25;96204.00;;;0.68;96.13
34185;BME280;20454;48.100;11.776;2023-01-28T17:38:51;96207.81;;;0.67;96.28
34185;BME280;20454;48.100;11.776;2023-01-28T17:41:17;96210.78;;;0.66;96.58
34185;BME280;20454;48.100;11.776;2023-01-28T17:43:48;96214.97;;;0.68;96.74
34185;BME280;20454;48.100;11.776;2023-01-28T17:46:15;96215.78;;;0.69;96.88
34185;BME280;20454;48.100;11.776;2023-01-28T17:48:41;96218.28;;;0.70;96.82
34185;BME280;20454;48.100;11.776;2023-01-28T17:51:08;96217.69;;;0.68;96.85
34185;BME280;20454;48.100;11.776;2023-01-28T17:53:34;96219.94;;;0.71;96.92
34185;BME280;20454;48.100;11.776;2023-01-28T17:56:00;96210.22;;;0.64;97.33
34185;BME280;20454;48.100;11.776;2023-01-28T17:58:26;96225.69;;;0.70;97.31
34185;BME280;20454;48.100;11.776;2023-01-28T18:00:51;96225.06;;;0.68;97.51
34185;BME280;20454;48.100;11.776;2023-01-28T18:03:17;96223.63;;;0.65;97.91
34185;BME280;20454;48.100;11.776;2023-01-28T18:05:43;96223.19;;;0.68;97.77
34185;BME280;20454;48.100;11.776;2023-01-28T18:08:08;96217.34;;;0.65;98.21
34185;BME280;20454;48.100;11.776;2023-01-28T18:10:34;96221.75;;;0.66;98.48
34185;BME280;20454;48.100;11.776;2023-01-28T18:13:00;96227.00;;;0.67;98.84
34185;BME280;20454;48.100;11.776;2023-01-28T18:15:26;96226.38;;;0.65;99.04
34185;BME280;20454;48.100;11.776;2023-01-28T18:17:53;96228.06;;;0.66;99.21
34185;BME280;20454;48.100;11.776;2023-01-28T21:03:34;96256.25;;;0.16;100.00
34185;BME280;20454;48.100;11.776;2023-01-28T21:06:00;96271.72;;;0.22;100.00
34185;BME280;20454;48.100;11.776;2023-01-28T21:08:25;96290.84;;;0.33;100.00
34185;BME280;20454;48.100;11.776;2023-01-28T21:10:51;96276.81;;;0.30;100.00
34185;BME280;20454;48.100;11.776;2023-01-28T21:13:16;96290.84;;;0.33;100.00
34185;BME280;20454;48.100;11.776;2023-01-28T21:15:51;96280.84;;;0.27;100.00
34185;BME280;20454;48.100;11.776;2023-01-28T21:18:17;96292.50;;;0.34;100.00
34185;BME280;20454;48.100;11.776;2023-01-28T21:20:42;96289.75;;;0.34;100.00
34185;BME280;20454;48.100;11.776;2023-01-28T21:23:09;96287.53;;;0.31;100.00
34185;BME280;20454;48.100;11.776;2023-01-28T21:25:42;96295.00;;;0.36;100.00
34185;BME280;20454;48.100;11.776;2023-01-28T21:28:11;96298.56;;;0.36;100.00
34185;BME280;20454;48.100;11.776;2023-01-28T21:30:37;96292.28;;;0.36;100.00
34185;BME280;20454;48.100;11.776;2023-01-28T21:33:03;96293.56;;;0.33;100.00
34185;BME280;20454;48.100;11.776;2023-01-28T21:35:29;96297.97;;;0.34;100.00
34185;BME280;20454;48.100;11.776;2023-01-28T21:37:54;96300.22;;;0.37;100.00
34185;BME280;20454;48.100;11.776;2023-01-28T21:40:20;96294.75;;;0.37;100.00
34185;BME280;20454;48.100;11.776;2023-01-28T21:42:46;96287.88;;;0.35;100.00
34185;BME280;20454;48.100;11.776;2023-01-28T21:45:12;96288.47;;;0.37;100.00
34185;BME280;20454;48.100;11.776;2023-01-28T21:47:37;96297.75;;;0.36;100.00
34185;BME280;20454;48.100;11.776;2023-01-28T21:50:03;96296.09;;;0.35;100.00
34185;BME280;20454;48.100;11.776;2023-01-28T21:52:30;96303.91;;;0.43;100.00
34185;BME280;20454;48.100;11.776;2023-01-28T21:54:55;96296.53;;;0.43;100.00
34185;BME280;20454;48.100;11.776;2023-01-28T21:57:21;96298.44;;;0.43;100.00
34185;BME280;20454;48.100;11.776;2023-01-28T21:59:46;96315.22;;;0.46;100.00
34185;BME280;20454;48.100;11.776;2023-01-28T22:02:13;96311.06;;;0.44;100.00
34185;BME280;20454;48.100;11.776;2023-01-28T22:04:41;96312.47;;;0.46;100.00
34185;BME280;20454;48.100;11.776;2023-01-28T22:07:09;96306.66;;;0.43;100.00
34185;BME280;20454;48.100;11.776;2023-01-28T22:09:36;96313.91;;;0.49;100.00
34185;BME280;20454;48.100;11.776;2023-01-28T22:12:02;96311.41;;;0.47;100.00
34185;BME280;20454;48.100;11.776;2023-01-28T22:14:29;96315.81;;;0.48;100.00
34185;BME280;20454;48.100;11.776;2023-01-28T22:16:55;96313.28;;;0.47;100.00
34185;BME280;20454;48.100;11.776;2023-01-28T22:19:20;96317.69;;;0.48;100.00
34185;BME280;20454;48.100;11.776;2023-01-28T22:21:46;96310.09;;;0.50;100.00
34185;BME280;20454;48.100;11.776;2023-01-28T22:24:14;96313.19;;;0.53;100.00
34185;BME280;20454;48.100;11.776;2023-01-28T22:26:41;96314.25;;;0.52;100.00
34185;BME280;20454;48.100;11.776;2023-01-28T22:29:07;96302.97;;;0.49;100.00
34185;BME280;20454;48.100;11.776;2023-01-28T22:31:33;96310.69;;;0.52;100.00
34185;BME280;20454;48.100;11.776;2023-01-28T22:33:59;96307.09;;;0.51;100.00
34185;BME280;20454;48.100;11.776;2023-01-28T22:36:25;96318.41;;;0.55;100.00
34185;BME280;20454;48.100;11.776;2023-01-28T22:38:51;96317.59;;;0.54;100.00
34185;BME280;20454;48.100;11.776;2023-01-28T22:41:18;96315.94;;;0.53;100.00
34185;BME280;20454;48.100;11.776;2023-01-28T22:43:45;96312.13;;;0.54;100.00
34185;BME280;20454;48.100;11.776;2023-01-28T22:46:11;96303.31;;;0.52;100.00
34185;BME280;20454;48.100;11.776;2023-01-28T22:48:37;96299.72;;;0.52;100.00
34185;BME280;20454;48.100;11.776;2023-01-28T22:51:09;96296.41;;;0.50;100.00
34185;BME280;20454;48.100;11.776;2023-01-28T22:53:36;96300.22;;;0.49;100.00
34185;BME280;20454;48.100;11.776;2023-01-28T22:56:02;96293.69;;;0.50;100.00
34185;BME280;20454;48.100;11.776;2023-01-28T22:58:28;96296.66;;;0.48;100.00
34185;BME280;20454;48.100;11.776;2023-01-28T23:00:55;96290.09;;;0.49;100.00
34185;BME280;20454;48.100;11.776;2023-01-28T23:03:21;96291.91;;;0.44;100.00
34185;BME280;20454;48.100;11.776;2023-01-28T23:05:47;96294.41;;;0.45;100.00
34185;BME280;20454;48.100;11.776;2023-01-28T23:08:13;96296.66;;;0.48;100.00
34185;BME280;20454;48.100;11.776;2023-01-28T23:10:43;96293.56;;;0.45;100.00
34185;BME280;20454;48.100;11.776;2023-01-28T23:13:12;96290.59;;;0.46;100.00
34185;BME280;20454;48.100;11.776;2023-01-28T23:15:39;96285.56;;;0.43;100.00
34185;BME280;20454;48.100;11.776;2023-01-28T23:18:24;96298.81;;;0.46;100.00
34185;BME280;20454;48.100;11.776;2023-01-28T23:21:23;96286.06;;;0.40;100.00
34185;BME280;20454;48.100;11.776;2023-01-28T23:24:18;96282.50;;;0.40;100.00
34185;BME280;20454;48.100;11.776;2023-01-28T23:26:48;96295.22;;;0.46;100.00
34185;BME280;20454;48.100;11.776;2023-01-28T23:29:13;96301.28;;;0.48;100.00
34185;BME280;20454;48.100;11.776;2023-01-28T23:31:43;96291.91;;;0.44;100.00
34185;BME280;20454;48.100;11.776;2023-01-28T23:34:15;96288.94;;;0.45;100.00
34185;BME280;20454;48.100;11.776;2023-01-28T23:36:41;96301.75;;;0.45;100.00
34185;BME280;20454;48.100;11.776;2023-01-28T23:39:06;96299.97;;;0.50;100.00
34185;BME280;20454;48.100;11.776;2023-01-28T23:41:32;96295.91;;;0.53;100.00
34185;BME280;20454;48.100;11.776;2023-01-28T23:43:58;96284.38;;;0.51;100.00
34185;BME280;20454;48.100;11.776;2023-01-28T23:46:23;96293.06;;;0.48;100.00
34185;BME280;20454;48.100;11.776;2023-01-28T23:48:49;96288.44;;;0.48;100.00
34185;BME280;20454;48.100;11.776;2023-01-28T23:51:19;96282.38;;;0.46;100.00
34185;BME280;20454;48.100;11.776;2023-01-28T23:53:44;96292.59;;;0.51;100.00
34185;BME280;20454;48.100;11.776;2023-01-28T23:56:10;96295.34;;;0.51;100.00
34185;BME280;20454;48.100;11.776;2023-01-28T23:58:36;96291.28;;;0.53;100.00
